sensor_id;sensor_type;location;lat;lon;timestamp;P1;durP1;ratioP1;P2;durP2;ratioP2
22415;SDS011;12204;50.600;4.608;2024-02-26T00:04:07;13.63;;;3.78;;
22415;SDS011;12204;50.600;4.608;2024-02-26T00:09:10;11.45;;;3.55;;
22415;SDS011;12204;50.600;4.608;2024-02-26T00:14:15;9.25;;;3.08;;
22415;SDS011;12204;50.600;4.608;2024-02-26T00:19:18;11.45;;;3.42;;
22415;SDS011;12204;50.600;4.608;2024-02-26T00:24:22;10.13;;;3.28;;
22415;SDS011;12204;50.600;4.608;2024-02-26T00:29:27;8.85;;;3.13;;
22415;SDS011;12204;50.600;4.608;2024-02-26T00:34:30;10.45;;;3.30;;
22415;SDS011;12204;50.600;4.608;2024-02-26T00:39:34;8.38;;;2.90;;
22415;SDS011;12204;50.600;4.608;2024-02-26T00:44:39;9.30;;;3.17;;
22415;SDS011;12204;50.600;4.608;2024-02-26T00:49:42;10.88;;;3.00;;
22415;SDS011;12204;50.600;4.608;2024-02-26T00:54:46;14.40;;;3.35;;
22415;SDS011;12204;50.600;4.608;2024-02-26T00:59:50;9.57;;;2.97;;
22415;SDS011;12204;50.600;4.608;2024-02-26T01:04:54;10.60;;;2.85;;
22415;SDS011;12204;50.600;4.608;2024-02-26T01:09:57;8.57;;;2.72;;
22415;SDS011;12204;50.600;4.608;2024-02-26T01:15:02;10.40;;;3.15;;
22415;SDS011;12204;50.600;4.608;2024-02-26T01:20:08;9.70;;;2.63;;
22415;SDS011;12204;50.600;4.608;2024-02-26T01:25:14;9.48;;;3.15;;
22415;SDS011;12204;50.600;4.608;2024-02-26T01:30:19;8.25;;;2.65;;
22415;SDS011;12204;50.600;4.608;2024-02-26T01:35:22;8.10;;;2.70;;
22415;SDS011;12204;50.600;4.608;2024-02-26T01:40:26;8.65;;;2.78;;
22415;SDS011;12204;50.600;4.608;2024-02-26T01:45:31;8.32;;;2.90;;
22415;SDS011;12204;50.600;4.608;2024-02-26T01:50:34;9.43;;;2.63;;
22415;SDS011;12204;50.600;4.608;2024-02-26T01:55:39;7.55;;;2.65;;
22415;SDS011;12204;50.600;4.608;2024-02-26T02:00:44;7.75;;;2.60;;
22415;SDS011;12204;50.600;4.608;2024-02-26T02:05:48;7.95;;;2.53;;
22415;SDS011;12204;50.600;4.608;2024-02-26T02:10:52;6.63;;;2.30;;
22415;SDS011;12204;50.600;4.608;2024-02-26T02:15:57;7.38;;;2.20;;
22415;SDS011;12204;50.600;4.608;2024-02-26T02:21:02;7.13;;;2.53;;
22415;SDS011;12204;50.600;4.608;2024-02-26T02:26:06;7.25;;;2.50;;
22415;SDS011;12204;50.600;4.608;2024-02-26T02:31:10;9.25;;;2.60;;
22415;SDS011;12204;50.600;4.608;2024-02-26T02:36:15;7.07;;;2.33;;
22415;SDS011;12204;50.600;4.608;2024-02-26T02:41:18;7.57;;;2.53;;
22415;SDS011;12204;50.600;4.608;2024-02-26T02:46:23;7.47;;;2.30;;
22415;SDS011;12204;50.600;4.608;2024-02-26T02:51:27;7.15;;;2.40;;
22415;SDS011;12204;50.600;4.608;2024-02-26T02:56:31;7.00;;;2.45;;
22415;SDS011;12204;50.600;4.608;2024-02-26T03:01:35;8.02;;;2.25;;
22415;SDS011;12204;50.600;4.608;2024-02-26T03:06:39;7.70;;;2.28;;
22415;SDS011;12204;50.600;4.608;2024-02-26T03:11:43;7.50;;;2.10;;
22415;SDS011;12204;50.600;4.608;2024-02-26T03:16:46;7.00;;;2.13;;
22415;SDS011;12204;50.600;4.608;2024-02-26T03:21:51;7.82;;;2.15;;
22415;SDS011;12204;50.600;4.608;2024-02-26T03:26:55;6.38;;;2.00;;
22415;SDS011;12204;50.600;4.608;2024-02-26T03:31:59;5.88;;;1.92;;
22415;SDS011;12204;50.600;4.608;2024-02-26T03:37:03;7.28;;;1.95;;
22415;SDS011;12204;50.600;4.608;2024-02-26T03:42:07;5.70;;;1.80;;
22415;SDS011;12204;50.600;4.608;2024-02-26T03:47:11;6.88;;;2.10;;
22415;SDS011;12204;50.600;4.608;2024-02-26T03:52:15;5.32;;;1.88;;
22415;SDS011;12204;50.600;4.608;2024-02-26T03:57:19;5.60;;;1.95;;
22415;SDS011;12204;50.600;4.608;2024-02-26T04:02:22;6.32;;;1.92;;
22415;SDS011;12204;50.600;4.608;2024-02-26T04:07:28;6.57;;;1.85;;
22415;SDS011;12204;50.600;4.608;2024-02-26T04:12:31;7.20;;;2.00;;
22415;SDS011;12204;50.600;4.608;2024-02-26T04:17:35;5.07;;;1.60;;
22415;SDS011;12204;50.600;4.608;2024-02-26T04:22:41;6.10;;;2.08;;
22415;SDS011;12204;50.600;4.608;2024-02-26T04:27:45;5.88;;;1.77;;
22415;SDS011;12204;50.600;4.608;2024-02-26T04:32:48;4.28;;;1.58;;
22415;SDS011;12204;50.600;4.608;2024-02-26T04:37:53;5.15;;;1.75;;
22415;SDS011;12204;50.600;4.608;2024-02-26T04:42:57;4.30;;;1.50;;
22415;SDS011;12204;50.600;4.608;2024-02-26T04:48:00;4.32;;;1.42;;
22415;SDS011;12204;50.600;4.608;2024-02-26T04:53:06;4.90;;;1.67;;
22415;SDS011;12204;50.600;4.608;2024-02-26T04:58:09;4.82;;;1.70;;
22415;SDS011;12204;50.600;4.608;2024-02-26T05:03:13;4.85;;;1.50;;
22415;SDS011;12204;50.600;4.608;2024-02-26T05:08:18;3.90;;;1.50;;
22415;SDS011;12204;50.600;4.608;2024-02-26T05:13:22;5.30;;;1.70;;
22415;SDS011;12204;50.600;4.608;2024-02-26T05:18:25;4.45;;;1.58;;
22415;SDS011;12204;50.600;4.608;2024-02-26T05:23:32;4.50;;;1.58;;
22415;SDS011;12204;50.600;4.608;2024-02-26T05:28:35;7.07;;;1.50;;
22415;SDS011;12204;50.600;4.608;2024-02-26T05:33:40;4.70;;;1.50;;
22415;SDS011;12204;50.600;4.608;2024-02-26T05:38:46;6.30;;;1.60;;
22415;SDS011;12204;50.600;4.608;2024-02-26T05:43:49;5.55;;;1.60;;
22415;SDS011;12204;50.600;4.608;2024-02-26T05:48:52;3.72;;;1.40;;
22415;SDS011;12204;50.600;4.608;2024-02-26T05:53:58;5.05;;;1.52;;
22415;SDS011;12204;50.600;4.608;2024-02-26T05:59:01;4.95;;;1.50;;
22415;SDS011;12204;50.600;4.608;2024-02-26T06:04:05;4.22;;;1.50;;
22415;SDS011;12204;50.600;4.608;2024-02-26T06:09:09;5.72;;;1.50;;
22415;SDS011;12204;50.600;4.608;2024-02-26T06:14:13;4.40;;;1.45;;
22415;SDS011;12204;50.600;4.608;2024-02-26T06:19:19;3.65;;;1.27;;
22415;SDS011;12204;50.600;4.608;2024-02-26T06:24:24;7.78;;;1.50;;
22415;SDS011;12204;50.600;4.608;2024-02-26T06:29:28;3.22;;;1.20;;
22415;SDS011;12204;50.600;4.608;2024-02-26T06:34:31;18.85;;;1.60;;
22415;SDS011;12204;50.600;4.608;2024-02-26T06:39:36;11.75;;;1.50;;
22415;SDS011;12204;50.600;4.608;2024-02-26T06:44:40;7.75;;;1.30;;
22415;SDS011;12204;50.600;4.608;2024-02-26T06:49:43;15.32;;;1.50;;
22415;SDS011;12204;50.600;4.608;2024-02-26T06:54:48;7.63;;;1.77;;
22415;SDS011;12204;50.600;4.608;2024-02-26T06:59:52;9.57;;;1.55;;
22415;SDS011;12204;50.600;4.608;2024-02-26T07:04:56;5.85;;;1.25;;
22415;SDS011;12204;50.600;4.608;2024-02-26T07:10:01;3.75;;;1.20;;
22415;SDS011;12204;50.600;4.608;2024-02-26T07:15:09;4.28;;;1.27;;
22415;SDS011;12204;50.600;4.608;2024-02-26T07:20:13;8.00;;;1.67;;
22415;SDS011;12204;50.600;4.608;2024-02-26T07:25:20;4.55;;;1.15;;
22415;SDS011;12204;50.600;4.608;2024-02-26T07:30:25;5.43;;;1.33;;
22415;SDS011;12204;50.600;4.608;2024-02-26T07:35:29;4.63;;;1.13;;
22415;SDS011;12204;50.600;4.608;2024-02-26T07:40:35;4.55;;;1.30;;
22415;SDS011;12204;50.600;4.608;2024-02-26T07:45:45;5.30;;;1.20;;
22415;SDS011;12204;50.600;4.608;2024-02-26T07:50:48;3.70;;;1.10;;
22415;SDS011;12204;50.600;4.608;2024-02-26T07:55:53;3.88;;;1.35;;
22415;SDS011;12204;50.600;4.608;2024-02-26T08:00:56;5.07;;;1.10;;
22415;SDS011;12204;50.600;4.608;2024-02-26T08:06:00;4.97;;;1.33;;
22415;SDS011;12204;50.600;4.608;2024-02-26T08:11:05;4.05;;;1.00;;
22415;SDS011;12204;50.600;4.608;2024-02-26T08:16:10;4.30;;;1.10;;
22415;SDS011;12204;50.600;4.608;2024-02-26T08:21:14;3.83;;;1.20;;
22415;SDS011;12204;50.600;4.608;2024-02-26T08:26:19;3.03;;;1.00;;
22415;SDS011;12204;50.600;4.608;2024-02-26T08:31:23;2.97;;;1.00;;
22415;SDS011;12204;50.600;4.608;2024-02-26T08:36:28;4.25;;;1.15;;
22415;SDS011;12204;50.600;4.608;2024-02-26T08:41:34;4.20;;;1.15;;
22415;SDS011;12204;50.600;4.608;2024-02-26T08:46:38;2.60;;;1.00;;
22415;SDS011;12204;50.600;4.608;2024-02-26T08:51:41;12.57;;;1.75;;
22415;SDS011;12204;50.600;4.608;2024-02-26T08:56:46;2.88;;;0.98;;
22415;SDS011;12204;50.600;4.608;2024-02-26T09:01:52;4.13;;;1.20;;
22415;SDS011;12204;50.600;4.608;2024-02-26T09:06:55;4.93;;;1.10;;
22415;SDS011;12204;50.600;4.608;2024-02-26T09:12:00;3.50;;;0.93;;
22415;SDS011;12204;50.600;4.608;2024-02-26T09:17:04;5.32;;;1.10;;
22415;SDS011;12204;50.600;4.608;2024-02-26T09:22:09;3.67;;;1.20;;
22415;SDS011;12204;50.600;4.608;2024-02-26T09:27:15;2.63;;;1.00;;
22415;SDS011;12204;50.600;4.608;2024-02-26T09:32:18;3.30;;;1.10;;
22415;SDS011;12204;50.600;4.608;2024-02-26T09:37:22;4.53;;;1.13;;
22415;SDS011;12204;50.600;4.608;2024-02-26T09:42:27;2.75;;;0.90;;
22415;SDS011;12204;50.600;4.608;2024-02-26T09:47:34;2.42;;;0.80;;
22415;SDS011;12204;50.600;4.608;2024-02-26T09:52:40;2.85;;;0.98;;
22415;SDS011;12204;50.600;4.608;2024-02-26T09:57:46;3.75;;;1.10;;
22415;SDS011;12204;50.600;4.608;2024-02-26T10:02:51;3.08;;;1.05;;
22415;SDS011;12204;50.600;4.608;2024-02-26T10:07:55;3.55;;;0.93;;
22415;SDS011;12204;50.600;4.608;2024-02-26T10:13:01;3.75;;;1.02;;
22415;SDS011;12204;50.600;4.608;2024-02-26T10:18:11;2.90;;;0.90;;
22415;SDS011;12204;50.600;4.608;2024-02-26T10:23:15;4.13;;;1.10;;
22415;SDS011;12204;50.600;4.608;2024-02-26T10:28:19;3.38;;;1.00;;
22415;SDS011;12204;50.600;4.608;2024-02-26T10:33:23;2.40;;;1.00;;
22415;SDS011;12204;50.600;4.608;2024-02-26T10:38:29;3.40;;;0.90;;
22415;SDS011;12204;50.600;4.608;2024-02-26T10:43:34;2.53;;;0.90;;
22415;SDS011;12204;50.600;4.608;2024-02-26T10:48:37;2.80;;;0.80;;
22415;SDS011;12204;50.600;4.608;2024-02-26T10:53:41;3.40;;;0.98;;
22415;SDS011;12204;50.600;4.608;2024-02-26T10:58:49;2.63;;;0.80;;
22415;SDS011;12204;50.600;4.608;2024-02-26T11:03:53;2.75;;;0.80;;
22415;SDS011;12204;50.600;4.608;2024-02-26T11:08:57;2.60;;;0.90;;
22415;SDS011;12204;50.600;4.608;2024-02-26T11:14:05;2.60;;;0.90;;
22415;SDS011;12204;50.600;4.608;2024-02-26T11:19:11;1.88;;;0.73;;
22415;SDS011;12204;50.600;4.608;2024-02-26T11:24:16;2.42;;;0.82;;
22415;SDS011;12204;50.600;4.608;2024-02-26T11:29:22;3.15;;;1.00;;
22415;SDS011;12204;50.600;4.608;2024-02-26T11:34:26;2.72;;;0.98;;
22415;SDS011;12204;50.600;4.608;2024-02-26T11:39:31;3.05;;;0.93;;
22415;SDS011;12204;50.600;4.608;2024-02-26T11:44:38;2.38;;;0.90;;
22415;SDS011;12204;50.600;4.608;2024-02-26T11:49:43;2.70;;;0.98;;
22415;SDS011;12204;50.600;4.608;2024-02-26T11:54:47;2.95;;;0.98;;
22415;SDS011;12204;50.600;4.608;2024-02-26T11:59:55;2.75;;;0.80;;
22415;SDS011;12204;50.600;4.608;2024-02-26T12:05:14;2.50;;;0.90;;
22415;SDS011;12204;50.600;4.608;2024-02-26T12:10:23;3.70;;;0.90;;
22415;SDS011;12204;50.600;4.608;2024-02-26T12:15:31;3.60;;;0.90;;
22415;SDS011;12204;50.600;4.608;2024-02-26T12:20:37;2.85;;;0.90;;
22415;SDS011;12204;50.600;4.608;2024-02-26T12:25:41;2.88;;;0.80;;
22415;SDS011;12204;50.600;4.608;2024-02-26T12:30:46;1.60;;;0.80;;
22415;SDS011;12204;50.600;4.608;2024-02-26T12:35:50;2.30;;;0.80;;
22415;SDS011;12204;50.600;4.608;2024-02-26T12:40:53;2.75;;;0.98;;
22415;SDS011;12204;50.600;4.608;2024-02-26T12:45:58;3.15;;;0.90;;
22415;SDS011;12204;50.600;4.608;2024-02-26T12:51:06;2.97;;;0.90;;
22415;SDS011;12204;50.600;4.608;2024-02-26T12:56:11;2.05;;;0.80;;
22415;SDS011;12204;50.600;4.608;2024-02-26T13:01:17;2.95;;;0.93;;
22415;SDS011;12204;50.600;4.608;2024-02-26T13:06:25;3.67;;;1.08;;
22415;SDS011;12204;50.600;4.608;2024-02-26T13:11:29;3.72;;;1.00;;
22415;SDS011;12204;50.600;4.608;2024-02-26T13:16:35;3.40;;;0.90;;
22415;SDS011;12204;50.600;4.608;2024-02-26T13:21:39;2.65;;;0.90;;
22415;SDS011;12204;50.600;4.608;2024-02-26T13:26:42;2.42;;;0.93;;
22415;SDS011;12204;50.600;4.608;2024-02-26T13:31:47;2.58;;;0.82;;
22415;SDS011;12204;50.600;4.608;2024-02-26T13:36:57;2.55;;;0.85;;
22415;SDS011;12204;50.600;4.608;2024-02-26T13:42:00;2.72;;;0.80;;
22415;SDS011;12204;50.600;4.608;2024-02-26T13:47:05;2.22;;;0.90;;
22415;SDS011;12204;50.600;4.608;2024-02-26T13:52:09;2.45;;;1.00;;
22415;SDS011;12204;50.600;4.608;2024-02-26T13:57:12;2.53;;;1.10;;
22415;SDS011;12204;50.600;4.608;2024-02-26T14:02:17;2.42;;;0.90;;
22415;SDS011;12204;50.600;4.608;2024-02-26T14:07:21;3.25;;;0.90;;
22415;SDS011;12204;50.600;4.608;2024-02-26T14:12:25;2.83;;;0.90;;
22415;SDS011;12204;50.600;4.608;2024-02-26T14:17:29;2.38;;;1.00;;
22415;SDS011;12204;50.600;4.608;2024-02-26T14:22:33;2.60;;;0.93;;
22415;SDS011;12204;50.600;4.608;2024-02-26T14:27:36;2.22;;;0.90;;
22415;SDS011;12204;50.600;4.608;2024-02-26T14:32:41;2.83;;;0.90;;
22415;SDS011;12204;50.600;4.608;2024-02-26T14:37:45;2.17;;;0.80;;
22415;SDS011;12204;50.600;4.608;2024-02-26T14:42:50;3.13;;;0.80;;
22415;SDS011;12204;50.600;4.608;2024-02-26T14:47:55;2.10;;;0.80;;
22415;SDS011;12204;50.600;4.608;2024-02-26T14:52:59;3.17;;;0.93;;
22415;SDS011;12204;50.600;4.608;2024-02-26T14:58:04;2.33;;;0.80;;
22415;SDS011;12204;50.600;4.608;2024-02-26T15:03:08;2.58;;;0.90;;
22415;SDS011;12204;50.600;4.608;2024-02-26T15:08:12;2.58;;;0.90;;
22415;SDS011;12204;50.600;4.608;2024-02-26T15:13:17;2.95;;;1.10;;
22415;SDS011;12204;50.600;4.608;2024-02-26T15:18:22;2.85;;;1.00;;
22415;SDS011;12204;50.600;4.608;2024-02-26T15:23:26;2.38;;;0.95;;
22415;SDS011;12204;50.600;4.608;2024-02-26T15:28:29;2.33;;;0.90;;
22415;SDS011;12204;50.600;4.608;2024-02-26T15:33:34;1.98;;;0.80;;
22415;SDS011;12204;50.600;4.608;2024-02-26T15:38:38;2.38;;;0.80;;
22415;SDS011;12204;50.600;4.608;2024-02-26T15:43:42;3.28;;;0.90;;
22415;SDS011;12204;50.600;4.608;2024-02-26T15:48:47;2.45;;;0.90;;
22415;SDS011;12204;50.600;4.608;2024-02-26T15:53:51;2.63;;;0.93;;
22415;SDS011;12204;50.600;4.608;2024-02-26T15:58:55;2.78;;;0.82;;
22415;SDS011;12204;50.600;4.608;2024-02-26T16:04:00;2.45;;;0.80;;
22415;SDS011;12204;50.600;4.608;2024-02-26T16:09:03;2.30;;;0.80;;
22415;SDS011;12204;50.600;4.608;2024-02-26T16:14:12;2.15;;;0.90;;
22415;SDS011;12204;50.600;4.608;2024-02-26T16:19:28;1.77;;;0.80;;
22415;SDS011;12204;50.600;4.608;2024-02-26T16:24:32;2.88;;;1.00;;
22415;SDS011;12204;50.600;4.608;2024-02-26T16:29:36;2.85;;;0.90;;
22415;SDS011;12204;50.600;4.608;2024-02-26T16:34:41;1.35;;;0.75;;
22415;SDS011;12204;50.600;4.608;2024-02-26T16:39:45;2.58;;;0.80;;
22415;SDS011;12204;50.600;4.608;2024-02-26T16:44:48;3.10;;;0.80;;
22415;SDS011;12204;50.600;4.608;2024-02-26T16:49:54;3.08;;;0.80;;
22415;SDS011;12204;50.600;4.608;2024-02-26T16:54:57;1.98;;;0.80;;
22415;SDS011;12204;50.600;4.608;2024-02-26T17:00:06;2.55;;;0.88;;
22415;SDS011;12204;50.600;4.608;2024-02-26T17:05:16;2.40;;;0.90;;
22415;SDS011;12204;50.600;4.608;2024-02-26T17:10:23;2.42;;;0.90;;
22415;SDS011;12204;50.600;4.608;2024-02-26T17:15:27;2.95;;;0.98;;
22415;SDS011;12204;50.600;4.608;2024-02-26T17:20:32;3.53;;;0.80;;
22415;SDS011;12204;50.600;4.608;2024-02-26T17:25:36;3.72;;;0.93;;
22415;SDS011;12204;50.600;4.608;2024-02-26T17:30:40;2.20;;;0.85;;
22415;SDS011;12204;50.600;4.608;2024-02-26T17:35:46;1.90;;;0.80;;
22415;SDS011;12204;50.600;4.608;2024-02-26T17:40:50;2.72;;;0.90;;
22415;SDS011;12204;50.600;4.608;2024-02-26T17:45:53;3.03;;;0.93;;
22415;SDS011;12204;50.600;4.608;2024-02-26T17:50:58;2.33;;;0.80;;
22415;SDS011;12204;50.600;4.608;2024-02-26T17:56:01;2.20;;;0.88;;
22415;SDS011;12204;50.600;4.608;2024-02-26T18:01:08;2.67;;;0.98;;
22415;SDS011;12204;50.600;4.608;2024-02-26T18:06:13;7.20;;;1.10;;
22415;SDS011;12204;50.600;4.608;2024-02-26T18:11:17;4.93;;;1.00;;
22415;SDS011;12204;50.600;4.608;2024-02-26T18:16:21;12.73;;;1.20;;
22415;SDS011;12204;50.600;4.608;2024-02-26T18:21:26;8.77;;;1.40;;
22415;SDS011;12204;50.600;4.608;2024-02-26T18:26:29;3.30;;;1.00;;
22415;SDS011;12204;50.600;4.608;2024-02-26T18:31:35;10.63;;;1.30;;
22415;SDS011;12204;50.600;4.608;2024-02-26T18:36:43;7.47;;;1.45;;
22415;SDS011;12204;50.600;4.608;2024-02-26T18:46:49;6.65;;;1.48;;
22415;SDS011;12204;50.600;4.608;2024-02-26T18:51:54;6.45;;;1.48;;
22415;SDS011;12204;50.600;4.608;2024-02-26T18:56:58;5.32;;;1.52;;
22415;SDS011;12204;50.600;4.608;2024-02-26T19:02:02;6.45;;;1.50;;
22415;SDS011;12204;50.600;4.608;2024-02-26T19:07:08;4.78;;;1.42;;
22415;SDS011;12204;50.600;4.608;2024-02-26T19:12:11;11.10;;;1.70;;
22415;SDS011;12204;50.600;4.608;2024-02-26T19:17:15;8.35;;;1.90;;
22415;SDS011;12204;50.600;4.608;2024-02-26T19:22:20;8.63;;;2.03;;
22415;SDS011;12204;50.600;4.608;2024-02-26T19:27:23;6.50;;;1.80;;
22415;SDS011;12204;50.600;4.608;2024-02-26T19:32:27;6.70;;;1.70;;
22415;SDS011;12204;50.600;4.608;2024-02-26T19:37:33;5.68;;;1.73;;
22415;SDS011;12204;50.600;4.608;2024-02-26T19:42:36;8.30;;;2.13;;
22415;SDS011;12204;50.600;4.608;2024-02-26T19:47:40;5.47;;;1.73;;
22415;SDS011;12204;50.600;4.608;2024-02-26T19:52:45;6.95;;;1.80;;
22415;SDS011;12204;50.600;4.608;2024-02-26T19:57:49;6.82;;;1.73;;
22415;SDS011;12204;50.600;4.608;2024-02-26T20:02:55;6.53;;;1.63;;
22415;SDS011;12204;50.600;4.608;2024-02-26T20:08:00;5.20;;;1.63;;
22415;SDS011;12204;50.600;4.608;2024-02-26T20:13:03;6.97;;;1.70;;
22415;SDS011;12204;50.600;4.608;2024-02-26T20:18:07;5.68;;;1.77;;
22415;SDS011;12204;50.600;4.608;2024-02-26T20:23:12;6.18;;;1.60;;
22415;SDS011;12204;50.600;4.608;2024-02-26T20:28:15;5.15;;;1.48;;
22415;SDS011;12204;50.600;4.608;2024-02-26T20:33:19;8.55;;;1.67;;
22415;SDS011;12204;50.600;4.608;2024-02-26T20:38:24;10.55;;;1.77;;
22415;SDS011;12204;50.600;4.608;2024-02-26T20:43:28;5.80;;;1.98;;
22415;SDS011;12204;50.600;4.608;2024-02-26T20:48:32;9.15;;;1.63;;
22415;SDS011;12204;50.600;4.608;2024-02-26T20:53:37;8.50;;;1.70;;
22415;SDS011;12204;50.600;4.608;2024-02-26T20:58:42;7.65;;;1.70;;
22415;SDS011;12204;50.600;4.608;2024-02-26T21:03:46;9.05;;;1.70;;
22415;SDS011;12204;50.600;4.608;2024-02-26T21:08:51;5.25;;;1.83;;
22415;SDS011;12204;50.600;4.608;2024-02-26T21:13:56;8.95;;;1.77;;
22415;SDS011;12204;50.600;4.608;2024-02-26T21:19:00;5.20;;;1.60;;
22415;SDS011;12204;50.600;4.608;2024-02-26T21:24:07;6.55;;;1.80;;
22415;SDS011;12204;50.600;4.608;2024-02-26T21:29:11;6.38;;;1.67;;
22415;SDS011;12204;50.600;4.608;2024-02-26T21:34:14;4.97;;;1.60;;
22415;SDS011;12204;50.600;4.608;2024-02-26T21:39:20;6.03;;;1.50;;
22415;SDS011;12204;50.600;4.608;2024-02-26T21:44:23;4.90;;;1.20;;
22415;SDS011;12204;50.600;4.608;2024-02-26T21:49:29;5.10;;;1.60;;
22415;SDS011;12204;50.600;4.608;2024-02-26T21:54:35;3.90;;;1.10;;
22415;SDS011;12204;50.600;4.608;2024-02-26T21:59:39;5.32;;;1.48;;
22415;SDS011;12204;50.600;4.608;2024-02-26T22:04:42;4.22;;;1.40;;
22415;SDS011;12204;50.600;4.608;2024-02-26T22:09:47;4.70;;;1.40;;
22415;SDS011;12204;50.600;4.608;2024-02-26T22:14:51;4.30;;;1.40;;
22415;SDS011;12204;50.600;4.608;2024-02-26T22:19:54;6.68;;;1.42;;
22415;SDS011;12204;50.600;4.608;2024-02-26T22:24:59;4.85;;;1.25;;
22415;SDS011;12204;50.600;4.608;2024-02-26T22:30:03;3.55;;;1.08;;
22415;SDS011;12204;50.600;4.608;2024-02-26T22:35:08;3.80;;;1.05;;
22415;SDS011;12204;50.600;4.608;2024-02-26T22:40:14;4.03;;;1.30;;
22415;SDS011;12204;50.600;4.608;2024-02-26T22:45:17;4.18;;;1.20;;
22415;SDS011;12204;50.600;4.608;2024-02-26T22:50:21;3.88;;;1.10;;
22415;SDS011;12204;50.600;4.608;2024-02-26T22:55:26;6.07;;;1.30;;
22415;SDS011;12204;50.600;4.608;2024-02-26T23:00:30;3.85;;;1.13;;
22415;SDS011;12204;50.600;4.608;2024-02-26T23:05:34;4.68;;;1.25;;
22415;SDS011;12204;50.600;4.608;2024-02-26T23:10:39;4.63;;;1.10;;
22415;SDS011;12204;50.600;4.608;2024-02-26T23:15:43;3.15;;;1.10;;
22415;SDS011;12204;50.600;4.608;2024-02-26T23:20:47;3.85;;;1.27;;
22415;SDS011;12204;50.600;4.608;2024-02-26T23:25:53;4.25;;;1.20;;
22415;SDS011;12204;50.600;4.608;2024-02-26T23:30:56;3.55;;;1.13;;
22415;SDS011;12204;50.600;4.608;2024-02-26T23:36:00;5.93;;;1.17;;
22415;SDS011;12204;50.600;4.608;2024-02-26T23:41:05;3.10;;;1.08;;
22415;SDS011;12204;50.600;4.608;2024-02-26T23:46:08;3.00;;;1.10;;
22415;SDS011;12204;50.600;4.608;2024-02-26T23:51:12;3.83;;;1.27;;
22415;SDS011;12204;50.600;4.608;2024-02-26T23:56:16;4.60;;;1.15;;
